Startpagina
METAR-TAF:

METAR-TAF

Vliegvelden :

Vliegbasis Koksijde

Koksijde, België

breedte: 51-05N, lengte: 002-39E, hoogte: 4 m

Actueel weer

Dit bericht is 21 minuten geleden gemaakt, om 23:55 UTC
Wind 2 kt uit variabele richting
Temperatuur 12°C
Vochtigheid 88%
Druk 1027 hPa
Zicht 10 km of meer

METAR: EBFN 122355Z AUTO VRB02KT 9999 NCD 12/10 Q1027 BLU

Tijdstip: 02:16 (00:16 UTC)

Verwachting

Dit bericht is 8 uur en het 35 minuten geleden gemaakt, om 15:41 UTC
Verwachting geldig van 12 om 19 UTC tot 13 om 07 UTC
Wind 6 kt uit het noordnoordoosten
Zicht 10 km of meer
Weinig wolken op 3500 ft
Wijzigt naar
van 13 om 02 UTC tot 13 om 04 UTC
Wind 4 kt uit het oostnoordoosten

TAF: EBFN 121541Z 1219/1307 03006KT 9999 FEW035 BECMG 1302/1304 06004KT

Waarnemingen en weersverwachtingen van meer dan 4000 vliegvelden (METAR en TAF).

De beschikbare stations zijn de gele en rode punten op de kaart.

Ga met uw muis naar het station om de naam te zien.

Klik dan om waarnemingen en weersverwachtingen te zien.

kaart wijzigen: klik op de groene knoppen met een zwart kruis om in te zoomen, op de groene knop met een streepje om uit te zoomen of op de groene pijlen voor aangrenzende kaarten.


METAR-TAF: